Архив погоды в Правой Хегге

Метеограмма Правая Хетта
Среда, 21 Августа
Время местн. Темп Ветер Видим Явления Облачность нижн/средн/верх Атм. давл. Влжн Точка росы ВНГО R Сост. почвы Tg s
Напр Скр Прв ур.ст ур.м изм
23:00 +10.2° С 1 - 20 км - переменная облачность 761 765 -0.5 90% +8.6° 1 км - - - -
20:00 +14.2° С 1 - 50 км - переменная облачность 761 766 -0.5 83% +11.4° 1 км 0 - - -
17:00 +19.5° С,С-В 1 - более 50 км - незначительная облачность 762 766 -0.7 60% +11.6° 1 км - - - -
14:00 +19.8° С 2 - 50 км - переменная облачность 762 767 -0.7 61% +12° 1 км - - - -
11:00 +17.3° С,С-В 1 - более 50 км небо без изменений {туман} незначительная облачность 763 768 -0.8 67% +11.2° 1 км - - - -
08:00 +11.2° С,С-В 1 - 4 км дымка переменная облачность 764 768 -0.2 100% +11.2° 1 км 0 - - -
05:00 +7.8° С,С-В 1 - 4 км дымка облачно 764 769 +0.1 100% +7.8° 600 м - - - -
02:00 - +8.9° С,С-В 1 - - - - 764 769 +0.1 100% +8.9° - - - - -
Вторник, 20 Августа
Время местн. Темп Ветер Видим Явления Облачность нижн/средн/верх Атм. давл. Влжн Точка росы ВНГО R Сост. почвы Tg s
Напр Скр Прв ур.ст ур.м изм
23:00 +10.9° С-В 1 - 20 км - переменная облачность 764 769 +0.2 99% +10.7° более 2.5 км - - - -
20:00 +14.6° С-В 1 - более 50 км - облачно 764 769 -0.5 82% +11.5° более 2.5 км 0 - - -
17:00 +18.2° С-В 2 - более 50 км - облачно с прояснениями 764 768 -0.5 69% +12.4° 600 м - - - -
14:00 +15.7° С-В 2 - 50 км - преимущественно облачно 764 769 -0.3 79% +12.1° 1 км - - - -
11:00 +12.5° С-В 2 - более 50 км небо без изменений {ливневые осадки} облачно 764 769 -0.1 91% +11° 1 км - - - -
08:00 +10.5° С,С-В 2 - 50 км небо без изменений {ливневые осадки} облачно 764 769 +0.3 99% +10.3° 600 м 0.1 Влажная (без луж) - -
05:00 +8.7° С,С-В 2 - 4 км слабый ливневый дождь облачно 764 769 +0.1 100% +8.7° 600 м - - - -
02:00 +9.3° С 2 - 20 км - облачно 764 769 -0.2 93% +8.3° 600 м - - - -
Понедельник, 19 Августа
Время местн. Темп Ветер Видим Явления Облачность нижн/средн/верх Атм. давл. Влжн Точка росы ВНГО R Сост. почвы Tg s
Напр Скр Прв ур.ст ур.м изм
23:00 +9.2° С-В 2 11 20 км - облачно 764 769 0 92% +8° 600 м - - - -
20:00 +9.7° С,С-В 2 11 более 50 км - облачно 764 769 +0.6 87% +7.7° 1 км 0 - - -
17:00 +11.5° С,С-В 3 - 50 км - облачно 764 768 +0.3 76% +7.4° 1 км - - - -
14:00 +12.3° С,С-В 3 - 50 км - облачно 763 768 +0.1 72% +7.5° 1 км - - - -
11:00 +11° С 3 - 50 км - облачно 763 768 +0.3 78% +7.4° 600 м - - - -
08:00 +8.9° С,С-В 3 - 50 км - облачно 763 768 +0.5 82% +6° 600 м 0.5 - - -
05:00 +9.5° С 2 - 50 км - облачно 762 767 +0.8 89% +7.8° 1 км - - - -
02:00 +9.9° С 2 - 20 км - облачно 762 766 +0.8 92% +8.7° 1 км - - - -
Воскресенье, 18 Августа
Время местн. Темп Ветер Видим Явления Облачность нижн/средн/верх Атм. давл. Влжн Точка росы ВНГО R Сост. почвы Tg s
Напр Скр Прв ур.ст ур.м изм
23:00 +11° С 2 - 20 км ливневый дождь {морось} облачно 761 766 +0.8 97% +10.6° 1 км - - - -
20:00 +12.3° С 2 - 20 км морось или снежные зерна {морось} облачно 760 765 +0.8 97% +11.9° 600 м 0.8 - - -